Time;durP1;ratioP1;P1;durP2;ratioP2;P2;SDS_P1;SDS_P2;PMS_P1;PMS_P2;Temp;Humidity;BMP_temperature;BMP_pressure;BME280_temperature;BME280_humidity;BME280_pressure;Samples;Min_cycle;Max_cycle;Signal;HPM_P1;HPM_P2
2021/05/31 00:02:15;;;;;;;4.67;3.50;;;8.10;54.90;;;;;;5039543;28;20548;-83
2021/05/31 00:04:55;;;;;;;3.97;3.40;;;8.00;55.50;;;;;;5038882;28;20500;-81
2021/05/31 00:07:30;;;;;;;5.87;3.13;;;8.00;56.00;;;;;;5034903;28;20925;-82
2021/05/31 00:10:11;;;;;;;4.87;3.57;;;8.10;56.10;;;;;;5029730;28;20456;-82
2021/05/31 00:12:53;;;;;;;8.27;3.57;;;8.10;55.80;;;;;;5046187;28;20473;-81
2021/05/31 00:15:37;;;;;;;4.37;3.20;;;8.00;56.30;;;;;;5049664;28;20453;-83
2021/05/31 00:18:14;;;;;;;4.80;3.57;;;7.90;56.40;;;;;;5044754;28;20761;-82
2021/05/31 00:20:56;;;;;;;4.33;3.70;;;7.80;56.80;;;;;;5045407;28;20459;-83
2021/05/31 00:23:35;;;;;;;4.90;4.17;;;8.00;57.10;;;;;;5043176;28;20462;-81
2021/05/31 00:26:11;;;;;;;4.93;3.60;;;8.10;57.20;;;;;;5039612;28;20457;-82
2021/05/31 00:28:44;;;;;;;5.60;3.53;;;8.10;57.50;;;;;;5042075;28;20468;-81
2021/05/31 00:31:19;;;;;;;4.00;3.30;;;7.80;58.10;;;;;;5033982;28;20465;-82
2021/05/31 00:33:54;;;;;;;4.37;3.83;;;7.80;58.80;;;;;;5048839;28;20464;-81
2021/05/31 00:36:29;;;;;;;3.73;3.43;;;7.70;58.80;;;;;;5045268;28;20446;-82
2021/05/31 00:39:01;;;;;;;3.73;3.37;;;7.60;59.50;;;;;;5047032;28;20497;-81
2021/05/31 00:41:47;;;;;;;4.63;3.73;;;7.60;59.70;;;;;;5036680;28;20479;-82
2021/05/31 00:44:28;;;;;;;3.80;3.50;;;7.80;60.20;;;;;;5043793;28;20508;-80
2021/05/31 00:47:09;;;;;;;3.87;3.27;;;7.70;60.50;;;;;;5037241;28;20452;-81
2021/05/31 00:49:49;;;;;;;4.40;4.00;;;7.60;60.80;;;;;;5043126;28;20449;-80
2021/05/31 00:52:29;;;;;;;4.00;3.60;;;7.90;60.80;;;;;;5048713;28;20453;-81
2021/05/31 00:55:05;;;;;;;4.50;4.10;;;7.80;61.10;;;;;;5036056;28;20552;-82
2021/05/31 00:57:39;;;;;;;6.27;3.87;;;7.60;61.70;;;;;;5037306;28;20458;-81
2021/05/31 01:00:22;;;;;;;8.20;4.20;;;7.50;62.60;;;;;;5009939;28;20457;-81
2021/05/31 01:02:57;;;;;;;3.70;3.40;;;7.50;63.30;;;;;;5009745;28;20597;-82
2021/05/31 01:05:32;;;;;;;4.50;3.97;;;7.80;63.70;;;;;;5045187;28;20434;-81
2021/05/31 01:08:17;;;;;;;4.33;3.93;;;7.70;63.60;;;;;;5036449;28;20461;-84
2021/05/31 01:10:58;;;;;;;4.90;4.40;;;7.40;64.30;;;;;;5044610;28;20561;-85
2021/05/31 01:13:41;;;;;;;4.50;4.10;;;7.40;65.70;;;;;;5061837;28;20774;-84
2021/05/31 01:16:21;;;;;;;4.80;4.33;;;7.40;66.20;;;;;;5056311;28;20445;-83
2021/05/31 01:18:59;;;;;;;4.73;4.23;;;7.40;67.30;;;;;;5054878;28;20452;-82
2021/05/31 01:21:48;;;;;;;4.57;4.17;;;7.60;67.30;;;;;;5041199;28;20441;-83
2021/05/31 01:24:38;;;;;;;3.97;3.67;;;7.50;67.90;;;;;;5061388;28;20447;-84
2021/05/31 01:27:25;;;;;;;8.43;4.27;;;7.80;67.50;;;;;;5049298;28;20924;-80
2021/05/31 01:30:15;;;;;;;4.93;3.90;;;7.60;66.90;;;;;;5039317;28;20514;-81
2021/05/31 01:32:56;;;;;;;4.40;4.00;;;7.50;67.40;;;;;;5045315;28;20881;-80
2021/05/31 01:35:44;;;;;;;4.97;4.57;;;7.60;68.00;;;;;;5036810;28;20649;-80
2021/05/31 01:38:19;;;;;;;5.23;4.50;;;7.60;68.60;;;;;;5041978;28;20458;-80
2021/05/31 01:40:55;;;;;;;4.60;3.97;;;7.60;68.80;;;;;;5046465;28;20457;-80
2021/05/31 01:43:32;;;;;;;5.97;4.77;;;7.40;69.00;;;;;;5043988;28;20462;-80
2021/05/31 01:46:24;;;;;;;6.40;4.70;;;7.40;70.10;;;;;;5048342;28;20469;-82
2021/05/31 01:48:59;;;;;;;4.80;4.40;;;7.40;70.20;;;;;;5042716;28;20462;-82
2021/05/31 01:51:35;;;;;;;5.23;4.70;;;7.50;70.90;;;;;;5042574;28;20457;-83
2021/05/31 01:54:10;;;;;;;4.60;4.30;;;7.40;71.10;;;;;;5048205;28;20470;-82
2021/05/31 01:56:48;;;;;;;4.60;4.20;;;7.30;71.50;;;;;;5031870;28;20460;-80
2021/05/31 01:59:24;;;;;;;5.10;4.60;;;7.30;71.90;;;;;;5039980;28;20449;-81
2021/05/31 02:02:05;;;;;;;6.00;4.50;;;7.30;72.20;;;;;;5045541;28;20461;-83
2021/05/31 02:04:44;;;;;;;8.10;5.43;;;7.30;72.40;;;;;;5054545;28;20627;-84
2021/05/31 02:07:19;;;;;;;6.60;5.40;;;7.00;72.90;;;;;;5051507;28;20465;-81
2021/05/31 02:10:04;;;;;;;7.00;4.70;;;7.00;74.70;;;;;;5036828;28;20545;-80
2021/05/31 02:12:45;;;;;;;5.40;4.90;;;6.90;75.50;;;;;;5032547;28;20473;-81
2021/05/31 02:15:29;;;;;;;5.27;4.80;;;7.00;75.70;;;;;;5039190;28;20477;-81
2021/05/31 02:18:19;;;;;;;6.30;5.00;;;6.80;76.30;;;;;;5045515;28;20887;-81
2021/05/31 02:20:58;;;;;;;5.17;4.50;;;6.90;77.30;;;;;;5038394;28;20540;-81
2021/05/31 02:23:33;;;;;;;7.33;4.60;;;6.70;77.90;;;;;;5041774;28;20460;-83
2021/05/31 02:26:09;;;;;;;5.60;4.80;;;6.80;78.30;;;;;;5040698;28;20463;-81
2021/05/31 02:28:41;;;;;;;5.27;4.47;;;6.60;79.00;;;;;;5033810;28;20479;-77
2021/05/31 02:31:18;;;;;;;6.00;5.40;;;6.60;79.90;;;;;;5033531;28;20544;-77
2021/05/31 02:33:54;;;;;;;5.23;4.77;;;6.60;80.50;;;;;;5033588;28;20473;-78
2021/05/31 02:36:29;;;;;;;5.70;5.03;;;6.60;80.20;;;;;;5036467;28;20488;-77
2021/05/31 02:39:01;;;;;;;6.47;5.77;;;6.40;82.30;;;;;;5035391;28;20475;-78
2021/05/31 02:41:35;;;;;;;7.70;5.27;;;6.30;82.60;;;;;;5033412;28;20481;-78
2021/05/31 02:44:11;;;;;;;5.83;5.20;;;6.20;83.90;;;;;;5034112;28;20484;-78
2021/05/31 02:46:46;;;;;;;6.60;5.30;;;6.10;85.50;;;;;;5032705;28;20456;-82
2021/05/31 02:49:22;;;;;;;6.67;6.00;;;6.00;87.10;;;;;;5043570;28;20468;-78
2021/05/31 02:51:57;;;;;;;6.27;5.73;;;6.20;87.80;;;;;;5039649;28;20451;-79
2021/05/31 02:54:31;;;;;;;6.80;5.60;;;6.20;87.10;;;;;;5041674;28;20487;-79
2021/05/31 02:57:06;;;;;;;6.37;5.83;;;6.30;88.10;;;;;;5033557;28;21405;-78
2021/05/31 02:59:41;;;;;;;5.47;4.87;;;6.20;88.00;;;;;;5032498;28;20499;-80
2021/05/31 03:02:15;;;;;;;6.27;5.37;;;6.20;88.00;;;;;;5027924;28;20545;-79
2021/05/31 03:04:55;;;;;;;6.90;6.17;;;6.20;88.60;;;;;;5032350;28;20968;-79
2021/05/31 03:07:38;;;;;;;6.57;5.40;;;5.90;90.00;;;;;;5034429;28;20522;-78
2021/05/31 03:10:13;;;;;;;7.27;5.60;;;5.90;90.90;;;;;;5036560;28;20502;-80
2021/05/31 03:12:49;;;;;;;6.93;6.33;;;6.00;91.70;;;;;;5034717;28;20478;-79
2021/05/31 03:15:24;;;;;;;6.00;5.40;;;6.10;91.10;;;;;;5030798;28;20465;-80
2021/05/31 03:17:59;;;;;;;6.30;5.70;;;6.10;90.80;;;;;;5039249;28;20466;-78
2021/05/31 03:20:36;;;;;;;7.10;6.23;;;5.80;91.10;;;;;;5037619;28;20448;-80
2021/05/31 03:23:11;;;;;;;7.23;5.90;;;6.00;92.40;;;;;;5041796;28;20459;-80
2021/05/31 03:25:45;;;;;;;6.67;6.17;;;6.10;91.40;;;;;;5040206;28;20491;-79
2021/05/31 03:28:20;;;;;;;7.77;7.03;;;6.30;90.10;;;;;;5036970;28;20980;-78
2021/05/31 03:30:55;;;;;;;7.27;6.40;;;6.30;90.30;;;;;;5035145;28;20448;-79
2021/05/31 03:33:35;;;;;;;7.57;6.10;;;6.40;89.80;;;;;;5040211;28;20456;-80
2021/05/31 03:36:12;;;;;;;7.13;6.43;;;6.30;90.20;;;;;;5037704;28;20610;-80
2021/05/31 03:38:46;;;;;;;6.30;5.70;;;6.50;90.50;;;;;;5042321;28;20972;-80
2021/05/31 03:41:21;;;;;;;7.60;6.30;;;6.60;89.40;;;;;;5020850;28;20449;-79
2021/05/31 03:43:57;;;;;;;10.13;6.47;;;6.80;87.00;;;;;;5034223;28;20922;-79
2021/05/31 03:46:29;;;;;;;7.10;6.40;;;6.60;88.30;;;;;;5035051;28;20456;-81
2021/05/31 03:49:04;;;;;;;7.07;6.10;;;6.60;88.60;;;;;;5038350;28;20922;-79
2021/05/31 03:51:45;;;;;;;6.23;5.60;;;6.60;89.60;;;;;;5036516;28;20468;-79
2021/05/31 03:54:20;;;;;;;7.40;6.13;;;6.60;89.80;;;;;;5045733;28;20482;-80
2021/05/31 03:57:00;;;;;;;6.40;5.80;;;6.70;89.70;;;;;;5045930;28;20628;-79
2021/05/31 03:59:36;;;;;;;6.67;5.97;;;6.70;88.90;;;;;;5044706;28;20473;-79
2021/05/31 04:02:12;;;;;;;6.73;6.03;;;6.80;88.80;;;;;;5030024;28;20452;-82
2021/05/31 04:04:51;;;;;;;7.23;5.43;;;8.50;87.00;;;;;;5040277;28;20514;-78
2021/05/31 04:13:17;;;;;;;6.00;5.10;;;12.50;60.80;;;;;;5045609;28;20446;-81
2021/05/31 04:15:52;;;;;;;7.03;4.97;;;13.60;62.70;;;;;;5050707;28;20455;-81
2021/05/31 04:18:27;;;;;;;4.90;4.50;;;15.20;61.20;;;;;;5049116;28;20438;-84
2021/05/31 04:21:05;;;;;;;5.30;4.70;;;14.70;57.30;;;;;;5039012;28;20457;-80
2021/05/31 04:23:46;;;;;;;6.00;4.43;;;14.80;56.10;;;;;;5045463;28;20510;-80
2021/05/31 04:26:21;;;;;;;5.23;4.73;;;16.80;57.50;;;;;;5046084;28;20517;-80
2021/05/31 04:28:57;;;;;;;5.30;4.80;;;17.60;55.80;;;;;;5042854;28;20450;-78
2021/05/31 04:31:32;;;;;;;5.50;5.00;;;17.40;53.30;;;;;;5046674;28;20498;-78
2021/05/31 04:34:07;;;;;;;4.87;4.47;;;17.90;53.60;;;;;;5040979;28;20998;-78
2021/05/31 04:36:43;;;;;;;4.43;4.03;;;14.90;51.00;;;;;;5045194;28;20534;-79
2021/05/31 04:39:28;;;;;;;4.80;4.40;;;15.40;53.70;;;;;;5039424;28;20461;-79
2021/05/31 04:42:05;;;;;;;4.73;4.43;;;15.50;54.80;;;;;;5042550;28;20478;-79
2021/05/31 04:44:41;;;;;;;4.90;4.50;;;14.50;53.00;;;;;;5048735;28;20450;-78
2021/05/31 04:47:15;;;;;;;5.27;4.63;;;15.60;53.40;;;;;;5036196;28;20455;-79
2021/05/31 04:49:50;;;;;;;5.30;4.87;;;16.50;53.40;;;;;;5050265;28;20434;-81
2021/05/31 04:52:25;;;;;;;5.30;4.80;;;17.10;54.50;;;;;;5061313;28;20485;-81
2021/05/31 04:55:16;;;;;;;5.20;4.70;;;17.60;52.30;;;;;;5065591;28;20462;-80
2021/05/31 04:57:51;;;;;;;4.87;4.47;;;16.10;51.50;;;;;;5056805;28;20487;-79
2021/05/31 05:00:26;;;;;;;4.63;4.30;;;15.70;51.60;;;;;;5046218;28;20443;-80
2021/05/31 05:03:01;;;;;;;5.20;4.80;;;16.30;52.60;;;;;;5044963;28;20456;-80
2021/05/31 05:05:41;;;;;;;5.27;4.77;;;18.30;52.60;;;;;;5035889;28;20452;-79
2021/05/31 05:08:16;;;;;;;6.03;5.43;;;15.80;51.60;;;;;;5038916;28;20969;-79
2021/05/31 05:11:08;;;;;;;5.57;5.07;;;17.10;53.10;;;;;;5037688;28;20444;-80
2021/05/31 05:13:43;;;;;;;6.00;4.90;;;17.20;50.40;;;;;;5033999;28;20463;-80
2021/05/31 05:16:16;;;;;;;6.87;4.70;;;16.50;51.20;;;;;;5044811;28;20501;-81
2021/05/31 05:18:51;;;;;;;5.07;4.67;;;18.00;53.00;;;;;;5044667;28;20509;-80
2021/05/31 05:21:26;;;;;;;5.30;4.80;;;18.20;49.60;;;;;;5035421;28;20460;-79
2021/05/31 05:24:03;;;;;;;5.43;4.87;;;16.70;49.90;;;;;;5036059;28;20480;-79
2021/05/31 05:27:04;;;;;;;5.80;5.10;;;16.90;50.10;;;;;;5041850;28;20445;-80
2021/05/31 05:29:40;;;;;;;8.73;4.80;;;17.20;50.90;;;;;;5040252;28;20483;-80
2021/05/31 05:32:14;;;;;;;7.30;4.87;;;18.90;51.30;;;;;;5041711;28;22422;-82
2021/05/31 05:34:51;;;;;;;5.37;4.87;;;18.80;50.60;;;;;;5047544;28;20508;-81
2021/05/31 05:37:29;;;;;;;5.47;4.73;;;18.50;50.30;;;;;;5041805;28;20519;-80
2021/05/31 05:43:28;;;;;;;5.80;4.83;;;20.80;48.30;;;;;;5032891;28;20461;-80
2021/05/31 05:49:17;;;;;;;5.05;4.60;;;19.50;50.80;;;;;;5006451;28;20362;-79
2021/05/31 05:52:03;;;;;;;5.40;4.90;;;19.50;48.60;;;;;;5038410;28;20202;-81
2021/05/31 05:54:40;;;;;;;5.37;4.97;;;19.40;49.70;;;;;;5040232;28;20478;-80
2021/05/31 05:57:15;;;;;;;5.67;5.17;;;19.40;49.30;;;;;;5028482;28;20452;-80
2021/05/31 05:59:49;;;;;;;6.00;5.20;;;17.70;47.10;;;;;;5046419;28;20449;-81
2021/05/31 06:02:29;;;;;;;6.33;5.27;;;18.30;49.90;;;;;;5041607;28;20446;-82
2021/05/31 06:05:04;;;;;;;7.83;5.03;;;15.40;50.60;;;;;;5040206;28;20475;-81
2021/05/31 06:07:44;;;;;;;5.90;5.33;;;16.20;50.80;;;;;;5039187;28;20446;-80
2021/05/31 06:10:26;;;;;;;5.40;4.90;;;16.80;49.80;;;;;;5023742;28;20475;-82
2021/05/31 06:12:58;;;;;;;5.80;5.30;;;17.10;50.00;;;;;;5048426;28;21096;-82
2021/05/31 06:15:30;;;;;;;4.47;4.07;;;17.50;50.70;;;;;;5043013;28;20488;-82
2021/05/31 06:18:15;;;;;;;5.27;4.90;;;19.40;50.80;;;;;;5049246;28;20454;-82
2021/05/31 06:20:50;;;;;;;5.50;5.00;;;16.60;49.20;;;;;;5045815;28;20457;-82
2021/05/31 06:23:25;;;;;;;5.87;5.37;;;14.50;49.60;;;;;;5042706;28;20475;-80
2021/05/31 06:25:58;;;;;;;5.90;5.40;;;12.40;52.00;;;;;;5040691;28;20455;-83
2021/05/31 06:28:34;;;;;;;5.67;5.07;;;12.40;53.20;;;;;;5045524;28;20447;-84
2021/05/31 06:31:08;;;;;;;5.90;5.30;;;12.60;53.70;;;;;;5027967;28;20464;-82
2021/05/31 06:33:43;;;;;;;6.30;5.70;;;12.60;53.80;;;;;;5039961;28;21083;-82
2021/05/31 06:36:23;;;;;;;8.07;5.80;;;12.50;53.70;;;;;;5039104;28;20474;-79
2021/05/31 06:38:55;;;;;;;6.10;5.50;;;12.50;54.30;;;;;;5037409;28;20475;-82
2021/05/31 06:41:36;;;;;;;7.17;5.00;;;12.10;54.40;;;;;;5023050;28;20467;-80
2021/05/31 06:44:11;;;;;;;5.80;4.90;;;12.00;54.50;;;;;;5028833;28;20455;-80
2021/05/31 06:46:51;;;;;;;6.17;5.57;;;12.20;55.40;;;;;;5045745;28;20482;-81
2021/05/31 06:49:40;;;;;;;7.83;5.67;;;12.50;55.00;;;;;;5051055;28;20972;-82
2021/05/31 06:52:24;;;;;;;5.77;5.27;;;12.60;55.50;;;;;;5042566;28;20554;-81
2021/05/31 06:54:59;;;;;;;5.30;4.90;;;12.50;54.70;;;;;;5042994;28;20486;-81
2021/05/31 06:57:34;;;;;;;11.00;5.77;;;12.80;55.10;;;;;;5043948;28;20483;-81
2021/05/31 07:00:20;;;;;;;6.23;5.63;;;12.80;54.70;;;;;;5049583;28;20443;-81
2021/05/31 07:02:55;;;;;;;5.93;5.43;;;12.70;54.80;;;;;;5044986;28;20470;-87
2021/05/31 07:05:40;;;;;;;6.30;5.13;;;12.80;55.20;;;;;;5041846;28;20609;-85
2021/05/31 07:08:23;;;;;;;7.40;5.80;;;13.10;55.00;;;;;;5020173;28;20457;-85
2021/05/31 07:11:03;;;;;;;5.67;5.10;;;13.10;54.70;;;;;;5018704;28;20478;-86
2021/05/31 07:16:31;;;;;;;5.03;4.63;;;13.60;54.30;;;;;;5041708;28;20460;-86
2021/05/31 07:19:04;;;;;;;6.00;4.77;;;14.00;54.20;;;;;;5014795;28;20480;-83
2021/05/31 07:21:59;;;;;;;5.17;4.67;;;14.10;53.90;;;;;;5047737;28;20440;-86
2021/05/31 07:27:44;;;;;;;5.55;4.80;;;13.70;52.70;;;;;;5045756;28;20441;-81
2021/05/31 07:30:20;;;;;;;5.33;4.90;;;14.00;53.70;;;;;;5043466;28;20206;-83
2021/05/31 07:32:56;;;;;;;4.97;4.57;;;14.20;53.40;;;;;;5055254;28;20479;-81
2021/05/31 07:35:33;;;;;;;8.03;4.30;;;14.30;52.40;;;;;;5044807;28;20474;-83
2021/05/31 07:38:29;;;;;;;4.90;4.50;;;14.60;52.50;;;;;;5027826;28;20461;-84
2021/05/31 07:41:03;;;;;;;4.13;3.67;;;14.80;52.40;;;;;;5043404;28;20443;-81
2021/05/31 07:43:36;;;;;;;4.90;3.70;;;14.30;49.90;;;;;;5044155;28;20602;-84
2021/05/31 07:46:17;;;;;;;5.43;4.93;;;14.20;50.50;;;;;;5038984;28;20453;-85
2021/05/31 07:48:50;;;;;;;4.27;3.80;;;14.30;51.60;;;;;;5054433;28;20494;-84
2021/05/31 07:51:27;;;;;;;4.40;3.97;;;14.60;50.70;;;;;;5045254;28;20521;-84
2021/05/31 07:54:11;;;;;;;4.37;4.03;;;14.20;50.20;;;;;;5051848;28;20508;-84
2021/05/31 07:56:46;;;;;;;4.60;4.20;;;14.10;50.40;;;;;;5041093;28;20446;-84
2021/05/31 08:02:16;;;;;;;4.30;4.00;;;14.10;50.90;;;;;;5051014;28;20559;-85
2021/05/31 08:05:01;;;;;;;5.13;3.70;;;14.60;50.80;;;;;;5044509;28;20488;-84
2021/05/31 08:07:39;;;;;;;5.73;3.97;;;14.70;50.90;;;;;;5039321;28;21044;-83
2021/05/31 08:10:32;;;;;;;4.40;4.00;;;15.10;50.40;;;;;;5033395;28;21244;-84
2021/05/31 08:13:07;;;;;;;4.53;4.20;;;15.30;49.80;;;;;;5040588;28;20476;-83
2021/05/31 08:15:45;;;;;;;4.20;3.90;;;15.30;49.40;;;;;;5042465;28;20780;-84
2021/05/31 08:18:24;;;;;;;3.87;3.27;;;15.40;49.30;;;;;;5049651;28;20448;-83
2021/05/31 08:21:08;;;;;;;3.37;3.17;;;15.40;48.70;;;;;;5038678;28;20465;-83
2021/05/31 08:26:44;;;;;;;4.10;3.73;;;15.30;48.00;;;;;;5049247;28;20218;-86
2021/05/31 08:29:20;;;;;;;3.63;3.33;;;15.40;48.30;;;;;;5050763;28;20462;-85
2021/05/31 08:32:01;;;;;;;4.63;3.27;;;15.50;48.10;;;;;;5056587;28;20453;-85
2021/05/31 08:34:36;;;;;;;3.83;3.43;;;15.70;48.20;;;;;;5040246;28;20467;-85
2021/05/31 08:37:18;;;;;;;3.63;3.43;;;15.90;47.80;;;;;;5067802;28;20444;-79
2021/05/31 08:39:54;;;;;;;3.43;3.13;;;16.10;47.80;;;;;;5054734;28;20479;-83
2021/05/31 08:42:39;;;;;;;5.43;3.50;;;15.80;47.20;;;;;;5039951;28;20978;-84
2021/05/31 08:45:15;;;;;;;4.93;3.70;;;15.50;47.10;;;;;;5040583;28;20458;-86
2021/05/31 08:47:58;;;;;;;4.03;3.73;;;15.70;47.00;;;;;;5038042;28;20458;-85
2021/05/31 08:53:31;;;;;;;3.60;3.30;;;16.20;46.90;;;;;;5045295;28;20505;-85
2021/05/31 08:56:07;;;;;;;6.17;4.00;;;16.50;46.80;;;;;;5045163;28;20484;-85
2021/05/31 08:58:47;;;;;;;4.83;3.10;;;16.10;46.20;;;;;;5042189;28;20451;-84
2021/05/31 09:01:24;;;;;;;3.67;3.38;;;16.20;46.00;;;;;;5039828;28;20456;-82
2021/05/31 09:04:12;;;;;;;3.58;3.38;;;16.20;46.30;;;;;;5040388;28;20454;-88
2021/05/31 09:10:03;;;;;;;3.50;3.20;;;16.10;45.50;;;;;;5048885;28;20455;-90
2021/05/31 09:18:43;;;;;;;3.10;2.83;;;16.30;45.70;;;;;;5045482;28;20509;-88
2021/05/31 09:24:22;;;;;;;2.60;2.40;;;17.10;44.60;;;;;;5047069;28;20457;-87
2021/05/31 09:33:14;;;;;;;2.97;2.77;;;17.30;44.40;;;;;;5062674;28;20478;-88
2021/05/31 09:35:58;;;;;;;3.20;2.90;;;17.10;44.00;;;;;;5062860;28;20470;-87
2021/05/31 09:38:54;;;;;;;3.20;2.90;;;16.70;43.40;;;;;;5043839;28;20579;-87
2021/05/31 09:47:14;;;;;;;3.47;2.57;;;16.70;43.40;;;;;;5048227;28;20457;-88
2021/05/31 09:50:03;;;;;;;3.03;2.40;;;16.70;43.70;;;;;;5045165;28;20460;-87
2021/05/31 09:52:49;;;;;;;3.23;2.43;;;17.40;43.00;;;;;;5034879;28;20483;-89
2021/05/31 09:58:26;;;;;;;2.73;2.40;;;17.30;43.00;;;;;;5037902;28;20467;-88
2021/05/31 10:01:09;;;;;;;3.63;3.33;;;16.80;42.80;;;;;;5038694;28;20442;-85
2021/05/31 10:04:14;;;;;;;3.37;2.67;;;17.70;43.20;;;;;;5039066;28;21333;-88
2021/05/31 10:06:56;;;;;;;5.10;2.77;;;18.10;42.40;;;;;;5041614;28;20454;-88
2021/05/31 10:09:48;;;;;;;2.67;2.47;;;17.20;42.30;;;;;;5047855;28;20956;-88
2021/05/31 10:12:30;;;;;;;2.83;2.63;;;17.10;42.50;;;;;;5048066;28;20449;-88
2021/05/31 10:15:18;;;;;;;2.30;2.10;;;17.00;42.90;;;;;;5056812;28;20478;-89
2021/05/31 10:18:06;;;;;;;2.85;2.65;;;17.80;43.10;;;;;;5054238;28;20453;-89
2021/05/31 10:26:20;;;;;;;2.93;2.73;;;18.00;42.20;;;;;;5060548;28;20457;-85
2021/05/31 10:29:00;;;;;;;2.70;2.50;;;18.20;42.10;;;;;;5042550;28;20464;-85
2021/05/31 10:31:46;;;;;;;3.20;3.00;;;18.20;41.90;;;;;;5042333;28;20246;-85
2021/05/31 10:34:29;;;;;;;3.13;2.83;;;18.80;42.40;;;;;;5039054;28;20535;-84
2021/05/31 10:37:18;;;;;;;5.50;3.00;;;17.80;42.00;;;;;;5038914;28;21095;-84
2021/05/31 10:40:10;;;;;;;2.90;2.70;;;18.10;43.20;;;;;;5040515;28;20596;-83
2021/05/31 10:43:10;;;;;;;3.63;3.23;;;18.70;42.20;;;;;;5031667;28;20545;-78
2021/05/31 10:45:46;;;;;;;3.30;3.00;;;18.60;41.60;;;;;;5045704;28;20488;-83
2021/05/31 10:48:25;;;;;;;2.77;2.53;;;18.60;42.00;;;;;;5044674;28;20442;-84
2021/05/31 10:51:02;;;;;;;2.67;2.47;;;18.20;41.20;;;;;;5039843;28;20437;-83
2021/05/31 10:53:45;;;;;;;3.03;2.47;;;19.00;41.40;;;;;;5039983;28;20466;-84
2021/05/31 10:56:54;;;;;;;2.53;2.33;;;19.20;40.50;;;;;;5040743;28;20551;-85
2021/05/31 11:02:30;;;;;;;2.90;2.70;;;18.60;41.50;;;;;;5041570;28;20503;-85
2021/05/31 11:05:14;;;;;;;3.90;2.90;;;18.00;41.40;;;;;;5040193;28;20458;-86
2021/05/31 11:07:58;;;;;;;2.97;2.77;;;17.90;42.30;;;;;;5038446;28;20494;-84
2021/05/31 11:10:54;;;;;;;3.50;2.50;;;18.30;42.10;;;;;;5039021;28;21011;-87
2021/05/31 11:13:28;;;;;;;3.00;2.70;;;18.50;41.90;;;;;;5047463;28;21045;-84
2021/05/31 11:16:14;;;;;;;4.40;3.10;;;18.20;41.40;;;;;;5024068;28;20570;-86
2021/05/31 11:18:52;;;;;;;3.07;2.87;;;18.40;41.80;;;;;;5038127;28;20462;-85
2021/05/31 11:21:44;;;;;;;3.23;3.03;;;19.10;42.10;;;;;;5042379;28;20450;-85
2021/05/31 11:24:22;;;;;;;3.17;2.97;;;19.00;42.10;;;;;;5042884;28;20543;-84
2021/05/31 11:27:03;;;;;;;3.23;2.97;;;19.60;42.20;;;;;;5052337;28;20469;-85
2021/05/31 11:29:39;;;;;;;3.10;2.80;;;20.20;41.80;;;;;;5048700;28;20442;-89
2021/05/31 11:32:35;;;;;;;2.67;2.47;;;19.70;40.80;;;;;;5051473;28;20445;-83
2021/05/31 11:35:14;;;;;;;2.90;2.70;;;18.90;41.00;;;;;;5048045;28;20965;-86
2021/05/31 11:37:51;;;;;;;3.17;2.63;;;18.90;41.20;;;;;;5055808;28;20803;-83
2021/05/31 11:40:28;;;;;;;3.10;2.90;;;18.60;41.20;;;;;;5023586;28;20533;-86
2021/05/31 11:43:12;;;;;;;3.50;3.20;;;19.20;41.80;;;;;;5019865;28;20568;-85
2021/05/31 11:45:48;;;;;;;3.40;2.83;;;18.70;41.20;;;;;;5035650;28;20456;-84
2021/05/31 11:48:33;;;;;;;4.00;2.80;;;19.10;41.70;;;;;;5047830;28;20458;-88
2021/05/31 11:51:18;;;;;;;3.30;3.00;;;18.50;41.00;;;;;;5041797;28;20468;-83
2021/05/31 11:53:59;;;;;;;3.57;3.23;;;18.50;41.60;;;;;;5042656;28;20480;-86
2021/05/31 11:56:47;;;;;;;2.73;2.53;;;19.30;42.00;;;;;;5042046;28;20561;-85
2021/05/31 11:59:38;;;;;;;3.27;2.97;;;18.70;41.20;;;;;;5026645;28;20458;-86
2021/05/31 12:02:16;;;;;;;4.27;3.87;;;18.90;41.90;;;;;;5035097;28;20449;-86
2021/05/31 12:05:05;;;;;;;3.27;3.07;;;19.70;41.60;;;;;;5047422;28;20476;-85
2021/05/31 12:11:20;;;;;;;3.77;3.33;;;19.60;40.80;;;;;;5055149;28;20440;-84
2021/05/31 12:14:04;;;;;;;4.00;3.60;;;20.20;41.90;;;;;;5066524;28;20462;-84
2021/05/31 12:16:59;;;;;;;3.40;3.10;;;19.30;40.50;;;;;;5045902;28;20474;-86
2021/05/31 12:19:35;;;;;;;3.00;2.80;;;19.40;41.10;;;;;;5013167;28;20834;-80
2021/05/31 12:22:12;;;;;;;4.30;3.13;;;19.20;40.30;;;;;;5034214;28;20211;-80
2021/05/31 12:24:50;;;;;;;4.00;2.83;;;19.60;40.60;;;;;;5036736;28;20455;-80
2021/05/31 12:27:35;;;;;;;3.23;3.03;;;19.20;39.50;;;;;;5033465;28;20452;-82
2021/05/31 12:30:15;;;;;;;3.13;2.80;;;19.90;40.60;;;;;;5029244;28;20547;-77
2021/05/31 12:32:50;;;;;;;4.83;2.90;;;20.70;40.80;;;;;;5035142;28;20474;-80
2021/05/31 12:35:25;;;;;;;2.80;2.60;;;21.20;40.80;;;;;;5034723;28;20474;-78
2021/05/31 12:38:01;;;;;;;3.97;3.37;;;21.20;40.50;;;;;;5030731;28;20511;-78
2021/05/31 12:40:41;;;;;;;3.15;2.95;;;21.60;40.30;;;;;;5026644;28;20499;-77
2021/05/31 12:43:16;;;;;;;3.03;2.83;;;21.60;40.10;;;;;;5034217;28;20446;-81
2021/05/31 12:45:53;;;;;;;3.03;2.83;;;21.40;40.00;;;;;;5038428;28;20196;-80
2021/05/31 12:48:28;;;;;;;3.33;3.00;;;20.10;38.90;;;;;;5036429;28;20463;-85
2021/05/31 12:51:13;;;;;;;3.17;2.90;;;20.00;40.20;;;;;;5031181;28;20502;-81
2021/05/31 12:53:52;;;;;;;3.50;3.20;;;20.90;40.20;;;;;;5038354;28;20932;-83
2021/05/31 12:56:31;;;;;;;3.27;2.60;;;21.50;39.90;;;;;;5041140;28;21054;-79
2021/05/31 12:59:13;;;;;;;3.50;3.20;;;21.50;39.70;;;;;;5036369;28;21071;-82
2021/05/31 13:01:48;;;;;;;2.87;2.67;;;21.10;39.60;;;;;;5036027;28;20471;-79
2021/05/31 13:04:33;;;;;;;3.13;2.80;;;21.60;39.90;;;;;;5042416;28;20487;-83
2021/05/31 13:07:16;;;;;;;3.20;3.00;;;21.50;40.00;;;;;;5037184;28;20466;-85
2021/05/31 13:09:52;;;;;;;3.10;2.90;;;19.90;38.70;;;;;;5033278;28;20456;-85
2021/05/31 13:12:31;;;;;;;3.00;2.77;;;19.90;39.50;;;;;;5034258;28;20969;-85
2021/05/31 13:15:13;;;;;;;4.63;2.43;;;20.70;40.00;;;;;;5031954;28;20469;-86
2021/05/31 13:17:49;;;;;;;3.00;2.80;;;20.60;39.90;;;;;;5035884;28;20485;-86
2021/05/31 13:20:25;;;;;;;3.23;2.53;;;19.90;38.70;;;;;;5038218;28;20888;-85
2021/05/31 13:23:02;;;;;;;4.07;2.90;;;20.30;38.70;;;;;;5040227;28;20554;-82
2021/05/31 13:25:36;;;;;;;3.17;2.93;;;19.90;38.90;;;;;;5038002;28;20465;-84
2021/05/31 13:28:20;;;;;;;2.60;2.40;;;20.70;38.90;;;;;;5044062;28;20525;-85
2021/05/31 13:30:59;;;;;;;2.87;2.67;;;20.70;38.30;;;;;;5040797;28;20549;-85
2021/05/31 13:33:49;;;;;;;3.10;2.90;;;21.20;38.70;;;;;;5035893;28;20803;-87
2021/05/31 13:36:32;;;;;;;2.40;2.30;;;20.80;38.80;;;;;;5037868;28;20482;-87
2021/05/31 13:39:16;;;;;;;7.63;2.75;;;20.10;37.90;;;;;;5045324;28;20461;-85
2021/05/31 13:42:13;;;;;;;3.10;2.80;;;20.70;39.20;;;;;;5041855;28;20235;-81
2021/05/31 13:45:01;;;;;;;2.50;2.30;;;20.80;38.40;;;;;;5045023;28;20447;-82
2021/05/31 13:47:38;;;;;;;2.50;2.40;;;20.30;38.90;;;;;;5049239;28;20450;-81
2021/05/31 13:50:15;;;;;;;2.73;2.53;;;21.00;38.70;;;;;;5051654;28;20442;-81
2021/05/31 13:52:48;;;;;;;3.00;2.70;;;20.10;38.30;;;;;;5051088;28;20964;-88
2021/05/31 13:55:23;;;;;;;2.40;2.30;;;20.30;38.70;;;;;;5042303;28;20562;-81
2021/05/31 13:58:00;;;;;;;2.77;2.57;;;20.40;38.40;;;;;;5043775;28;20486;-81
2021/05/31 14:03:59;;;;;;;2.53;2.37;;;21.00;38.10;;;;;;5044140;28;20468;-92
2021/05/31 14:31:10;;;;;;;2.40;2.20;;;21.30;38.20;;;;;;5033560;28;20441;-87
2021/05/31 14:34:02;;;;;;;2.85;2.13;;;21.00;38.10;;;;;;5034237;28;22548;-88
2021/05/31 14:37:27;;;;;;;2.80;2.30;;;20.10;37.70;;;;;;5027228;28;20468;-86
2021/05/31 14:40:18;;;;;;;2.43;1.97;;;20.30;38.30;;;;;;5035711;28;20283;-87
2021/05/31 14:45:46;;;;;;;2.23;2.13;;;20.10;37.40;;;;;;5041493;28;20465;-86
2021/05/31 14:48:27;;;;;;;2.60;2.20;;;20.20;38.10;;;;;;5043577;28;20957;-86
2021/05/31 14:51:10;;;;;;;2.30;2.20;;;20.40;37.70;;;;;;5044935;28;20454;-89
2021/05/31 14:57:03;;;;;;;2.40;2.20;;;20.90;37.70;;;;;;5041277;28;20474;-89
2021/05/31 15:00:03;;;;;;;2.70;2.50;;;21.20;37.70;;;;;;5030799;28;20425;-91
2021/05/31 15:05:30;;;;;;;2.17;1.97;;;20.70;37.30;;;;;;5048397;28;20465;-90
2021/05/31 15:08:19;;;;;;;3.40;2.03;;;21.10;37.60;;;;;;5032577;28;20465;-89
2021/05/31 15:11:13;;;;;;;2.70;2.50;;;20.40;37.10;;;;;;5055109;28;20495;-88
2021/05/31 15:13:48;;;;;;;2.20;2.10;;;20.90;37.50;;;;;;5044257;28;20469;-84
2021/05/31 15:16:25;;;;;;;2.20;2.00;;;20.50;37.60;;;;;;5037092;28;20470;-87
2021/05/31 15:19:07;;;;;;;2.40;2.20;;;20.90;37.50;;;;;;5020177;28;20463;-86
2021/05/31 15:21:41;;;;;;;2.07;1.97;;;21.10;37.60;;;;;;5040240;28;20531;-86
2021/05/31 15:24:22;;;;;;;2.15;2.05;;;20.80;37.10;;;;;;5038965;28;20449;-88
2021/05/31 15:27:02;;;;;;;2.35;2.15;;;21.10;37.40;;;;;;5021126;28;20558;-88
2021/05/31 15:36:02;;;;;;;3.00;2.57;;;20.50;37.00;;;;;;5055040;28;20465;-85
2021/05/31 15:41:53;;;;;;;3.00;2.50;;;20.30;37.30;;;;;;5061003;28;20450;-90
2021/05/31 15:44:42;;;;;;;2.47;2.27;;;20.80;37.50;;;;;;5047081;28;20456;-89
2021/05/31 15:47:21;;;;;;;1.93;1.83;;;20.80;37.30;;;;;;5050239;28;20457;-89
2021/05/31 15:49:57;;;;;;;8.77;2.17;;;20.10;37.10;;;;;;5047625;28;20450;-86